CheckWX is a tool to help pilots better visualize weather data.  It is not intended as a substitute for an official pre-flight weather briefing.

09:56:23 UTC

KHZR METAR
False River Regional Airport
New Roads, Louisiana, USA
Current

40 mins ago

KHZR 250916Z AUTO 12003KT 10SM CLR 24/23 A2992 RMK AO2
Observed
Aug-25 @ 09:16 UTC
Wind
  • 120° at 3 KTS
Visibility
10 SM
Flight Rules
VFR
Cloud Levels
  • Clear skies
Temperature
24°C / 75°F
Dewpoint
23°C / 73°F
Humidity
94%
Altimeter
29.92" Hg
Pressure
1013.22 hPa
Previous

58 mins ago

KHZR 250858Z AUTO 12004KT 10SM SCT023 SCT031 SCT038 24/23 A2992 RMK AO2
Observed
Aug-25 @ 08:58 UTC
Wind
  • 120° at 4 KTS
Visibility
10 SM
Flight Rules
VFR
Cloud Levels
  • Scattered at 2,300' AGL
  • Scattered at 3,100' AGL
  • Scattered at 3,800' AGL
Temperature
24°C / 75°F
Dewpoint
23°C / 73°F
Humidity
94%
Altimeter
29.92" Hg
Pressure
1013.22 hPa
Previous

2 hours ago

KHZR 250816Z AUTO 00000KT 10SM BKN031 BKN037 BKN060 24/24 A2994 RMK AO2
Observed
Aug-25 @ 08:16 UTC
Visibility
10 SM
Flight Rules
VFR
Cloud Levels
  • Broken at 3,100' AGL
  • Broken at 3,700' AGL
  • Broken at 6,000' AGL
Temperature
24°C / 75°F
Dewpoint
24°C / 75°F
Humidity
100%
Altimeter
29.94" Hg
Pressure
1013.92 hPa